Culver, Indiana
Current Conditions -  °F | °C
As of 9:55 AM on Tuesday 21 Oct 2014 (Local Time) from KOXI Reporting Station
Overcast Overcast  
Wind Chill: 42°   Ceiling: 3700
Heat Index: 47°   Visibility: 10mi
Dew Point: 43°   Wind: 12mph
Humidity: 84%   Direction: 340°NNW
Pressure: 30.09"   Gusts: NA
Location:  41.22°N, 86.42°W
Report Text: KOXI 211355Z AUTO 34010KT 10SM SCT027 BKN037 OVC046 09/06 A3009 RMK AO1 T00860061
Loading
Personal Weather Stations






























Interactive Weather Map
Tropical Storm Tracking
New forecast layout! Learn more

10-Day Weather Forecast

Advertisements
Track Severe Weather on mobile